Skip Navigation LinksHome page > Weather > Current weather Skip Navigation Links

Current Weather

Chicago O'Hare Intl, Chicago

For information only: do not use for flight planning or navigation.
Latest weather
Observation time Wednesday, October 17, 2018 11:51 PM CDT
Local time Thursday, October 18, 2018 12:35 AM CDT
Flight conditions Visual Meteorological Conditions
Winds
Wind direction West (270°)
Wind speed 5 mph
Visibility 10 mi.
Sky condition
Ceiling unlimited
Sky clear
Temperature 40°F
Dewpoint 28°F
Altimeter 30.46 in.Hg
Derived measurements
Relative humidity 62%
Wind chill 37°F
Density altitude -1151 ft.
Sea-level pressure 30.47 in.Hg
Remarks
Automated weather observing station with precipitation discriminator.
METAR KORD 180451Z 27004KT 10SM CLR 04/M02 A3046 RMK AO2 SLP318 T00441022

Settings

Location code

InnerDrive.Weather 4.0.6770.0 Release CLR 4.0.30319.42000
Copyright ©2018 Inner Drive Technology. All rights reserved. Portions Copyright ©1986-2018 David Braverman.

Find weather

Site navigation


Skip Navigation Links

Place info

Page info

PayPal - The safer, easier way to pay online!

Return home.

Copyright ©2018 Inner Drive Technology. Purveyors of fine, hand-crafted computer software. Page printed 2018-10-18T05:35:09 UTC.